Time;durP1;ratioP1;P1;durP2;ratioP2;P2;SDS_P1;SDS_P2;PMS_P1;PMS_P2;Temp;Humidity;BMP_temperature;BMP_pressure;BME280_temperature;BME280_humidity;BME280_pressure;Samples;Min_cycle;Max_cycle;Signal;HPM_P1;HPM_P2
2024/01/08 00:00:26;;;;;;;13.40;7.43;;;-1.60;1.00;;;;;;5032429;28;20210;-77
2024/01/08 00:02:53;;;;;;;13.17;7.43;;;-1.60;1.00;;;;;;5028963;28;20242;-77
2024/01/08 00:05:20;;;;;;;11.70;7.10;;;-1.60;1.00;;;;;;5034946;28;20220;-78
2024/01/08 00:07:47;;;;;;;12.77;7.30;;;-1.60;1.00;;;;;;5029077;28;20218;-77
2024/01/08 00:10:15;;;;;;;14.80;7.00;;;-1.60;1.00;;;;;;5039204;28;20222;-78
2024/01/08 00:12:41;;;;;;;13.83;7.27;;;-1.60;92.80;;;;;;5035167;28;20215;-77
2024/01/08 00:15:10;;;;;;;13.17;7.17;;;-1.60;1.00;;;;;;5032296;28;20203;-77
2024/01/08 00:17:37;;;;;;;10.90;7.20;;;-1.50;1.00;;;;;;5035408;28;20201;-77
2024/01/08 00:20:04;;;;;;;11.60;7.03;;;-1.50;1.00;;;;;;5028422;28;20210;-77
2024/01/08 00:22:31;;;;;;;13.13;6.97;;;-1.50;99.90;;;;;;5032332;28;20196;-77
2024/01/08 00:24:58;;;;;;;13.60;7.30;;;-1.50;1.00;;;;;;5031044;28;20226;-77
2024/01/08 00:27:24;;;;;;;13.37;7.23;;;-1.50;1.00;;;;;;5033043;28;20206;-77
2024/01/08 00:29:51;;;;;;;13.07;7.17;;;-1.50;1.00;;;;;;5032860;28;20199;-78
2024/01/08 00:32:19;;;;;;;14.13;6.77;;;-1.50;1.00;;;;;;5032970;28;20202;-77
2024/01/08 00:34:46;;;;;;;13.13;7.37;;;-1.50;1.00;;;;;;5032685;28;20222;-77
2024/01/08 00:37:13;;;;;;;13.77;7.50;;;-1.50;49.20;;;;;;5032761;28;20203;-77
2024/01/08 00:39:39;;;;;;;14.13;7.67;;;-1.50;44.90;;;;;;5034146;28;20214;-78
2024/01/08 00:42:06;;;;;;;12.13;6.70;;;-1.50;1.00;;;;;;5032514;28;20230;-77
2024/01/08 00:44:33;;;;;;;13.07;6.97;;;-1.50;95.50;;;;;;5032181;28;20237;-77
2024/01/08 00:47:00;;;;;;;10.93;6.57;;;-1.50;99.90;;;;;;5038144;28;20199;-77
2024/01/08 00:49:28;;;;;;;13.83;7.00;;;-1.50;99.90;;;;;;5029734;28;20207;-77
2024/01/08 00:51:55;;;;;;;11.57;6.87;;;-1.50;99.90;;;;;;5032495;28;20210;-77
2024/01/08 00:54:21;;;;;;;12.77;7.03;;;-1.50;99.90;;;;;;5032452;28;20224;-78
2024/01/08 00:56:48;;;;;;;13.00;7.40;;;-1.50;99.90;;;;;;5036158;28;20199;-77
2024/01/08 00:59:15;;;;;;;11.97;6.40;;;-1.50;1.00;;;;;;5032642;28;20199;-77
2024/01/08 01:01:42;;;;;;;12.47;6.90;;;-1.50;1.00;;;;;;5040396;28;20200;-77
2024/01/08 01:04:08;;;;;;;12.63;7.63;;;-1.50;99.90;;;;;;5031749;28;20239;-77
2024/01/08 01:06:37;;;;;;;12.13;7.40;;;-1.50;99.90;;;;;;5040432;28;20209;-77
2024/01/08 01:09:04;;;;;;;12.80;7.23;;;-1.50;1.00;;;;;;5032020;28;20204;-77
2024/01/08 01:11:30;;;;;;;15.50;7.20;;;-1.40;1.00;;;;;;5031490;28;20203;-77
2024/01/08 01:13:57;;;;;;;14.20;8.17;;;-1.40;1.00;;;;;;5029222;28;20229;-77
2024/01/08 01:16:26;;;;;;;13.17;7.67;;;-1.40;29.50;;;;;;5033179;28;20208;-77
2024/01/08 01:18:53;;;;;;;14.03;7.13;;;-1.40;99.90;;;;;;5031196;28;20204;-77
2024/01/08 01:21:21;;;;;;;11.70;7.20;;;-1.40;1.00;;;;;;5030622;28;20214;-78
2024/01/08 01:23:50;;;;;;;13.07;7.43;;;-1.40;1.00;;;;;;5028954;28;20226;-77
2024/01/08 01:26:16;;;;;;;14.00;7.60;;;-1.40;1.00;;;;;;5034041;28;20226;-77
2024/01/08 01:28:43;;;;;;;11.10;6.50;;;-1.40;1.00;;;;;;5038078;28;20669;-77
2024/01/08 01:31:11;;;;;;;12.57;7.47;;;-1.40;1.00;;;;;;5029544;28;20204;-77
2024/01/08 01:33:38;;;;;;;12.67;7.20;;;-1.40;1.00;;;;;;5033544;28;20219;-77
2024/01/08 01:36:05;;;;;;;12.83;7.73;;;-1.40;1.00;;;;;;5030283;28;20650;-77
2024/01/08 01:38:32;;;;;;;12.27;7.07;;;-1.40;1.00;;;;;;5036275;28;20195;-78
2024/01/08 01:41:00;;;;;;;13.00;7.07;;;-1.40;1.00;;;;;;5037812;28;20199;-78
2024/01/08 01:43:28;;;;;;;14.47;7.20;;;-1.40;1.00;;;;;;5035193;28;20726;-78
2024/01/08 01:45:57;;;;;;;15.77;8.03;;;-1.40;1.00;;;;;;5035209;28;20620;-77
2024/01/08 01:48:24;;;;;;;12.50;7.13;;;-1.40;1.00;;;;;;5033363;28;20242;-78
2024/01/08 01:50:52;;;;;;;13.83;7.93;;;-1.50;1.00;;;;;;5031174;28;20207;-77
2024/01/08 01:53:19;;;;;;;13.73;7.50;;;-1.40;1.00;;;;;;5031316;28;20301;-77
2024/01/08 01:55:47;;;;;;;14.70;7.70;;;-1.40;1.00;;;;;;5031123;28;20196;-77
2024/01/08 01:58:16;;;;;;;12.40;7.57;;;-1.40;99.90;;;;;;5031158;28;20214;-77
2024/01/08 02:00:43;;;;;;;14.27;7.40;;;-1.40;1.00;;;;;;5034046;28;20206;-77
2024/01/08 02:03:11;;;;;;;14.67;8.03;;;-1.40;1.00;;;;;;5031488;28;20232;-77
2024/01/08 02:05:38;;;;;;;14.43;7.47;;;-1.40;1.00;;;;;;5030501;28;20479;-77
2024/01/08 02:08:07;;;;;;;14.37;7.50;;;-1.40;99.90;;;;;;5032325;28;20225;-77
2024/01/08 02:10:34;;;;;;;12.47;7.10;;;-1.40;99.90;;;;;;5033735;28;20681;-78
2024/01/08 02:13:03;;;;;;;13.97;7.53;;;-1.40;1.00;;;;;;5031955;28;20598;-77
2024/01/08 02:15:31;;;;;;;12.20;7.27;;;-1.40;99.90;;;;;;5031623;28;20206;-77
2024/01/08 02:17:57;;;;;;;14.17;7.20;;;-1.40;1.00;;;;;;5030412;28;20230;-78
2024/01/08 02:20:24;;;;;;;12.80;7.10;;;-1.30;61.70;;;;;;5029204;28;20387;-76
2024/01/08 02:22:52;;;;;;;12.03;6.47;;;-1.40;1.00;;;;;;5026190;28;20220;-77
2024/01/08 02:25:19;;;;;;;12.30;7.10;;;-1.40;1.00;;;;;;5038486;28;20660;-77
2024/01/08 02:27:46;;;;;;;17.43;8.03;;;-1.30;32.50;;;;;;5038652;28;20200;-77
2024/01/08 02:30:13;;;;;;;12.07;6.87;;;-1.40;1.00;;;;;;5040979;28;20282;-77
2024/01/08 02:32:40;;;;;;;13.03;6.97;;;-1.40;99.90;;;;;;5041203;28;20204;-77
2024/01/08 02:35:08;;;;;;;10.43;6.30;;;-1.30;1.00;;;;;;5031609;28;20191;-78
2024/01/08 02:37:34;;;;;;;13.33;7.03;;;-1.30;1.00;;;;;;5037880;28;20580;-77
2024/01/08 02:40:02;;;;;;;12.17;6.90;;;-1.20;1.00;;;;;;5034757;28;20199;-77
2024/01/08 02:42:29;;;;;;;11.10;6.17;;;-1.20;1.00;;;;;;5037001;28;20251;-77
2024/01/08 02:44:57;;;;;;;12.43;6.83;;;-1.20;99.90;;;;;;5033203;28;20258;-77
2024/01/08 02:47:24;;;;;;;13.07;7.13;;;-1.20;99.90;;;;;;5036552;28;20195;-78
2024/01/08 02:49:51;;;;;;;11.63;6.43;;;-1.20;99.90;;;;;;5036475;28;20207;-77
2024/01/08 02:52:18;;;;;;;12.73;6.70;;;-1.20;99.90;;;;;;5034124;28;20204;-77
2024/01/08 02:54:45;;;;;;;10.90;6.83;;;-1.20;99.90;;;;;;5037517;28;20223;-77
2024/01/08 02:57:13;;;;;;;12.57;6.87;;;-1.20;99.90;;;;;;5033373;28;20203;-77
2024/01/08 02:59:40;;;;;;;11.03;6.10;;;-1.20;99.90;;;;;;5031157;28;20573;-77
2024/01/08 03:02:06;;;;;;;12.07;6.83;;;-1.20;1.00;;;;;;5033027;28;20685;-77
2024/01/08 03:04:33;;;;;;;10.63;6.33;;;-1.30;99.90;;;;;;5036178;28;20216;-77
2024/01/08 03:07:01;;;;;;;13.87;7.60;;;-1.20;99.90;;;;;;5033816;28;20206;-77
2024/01/08 03:09:28;;;;;;;12.40;6.40;;;-1.20;1.00;;;;;;5032757;28;20207;-77
2024/01/08 03:11:55;;;;;;;12.23;6.77;;;-1.20;99.90;;;;;;5035096;28;20207;-78
2024/01/08 03:14:24;;;;;;;11.47;7.00;;;-1.20;1.00;;;;;;5039658;28;20597;-77
2024/01/08 03:16:50;;;;;;;11.83;6.63;;;-1.20;1.00;;;;;;5033621;28;20611;-77
2024/01/08 03:19:17;;;;;;;12.07;6.80;;;-1.20;99.90;;;;;;5035081;28;20208;-77
2024/01/08 03:21:44;;;;;;;11.37;6.03;;;-1.20;99.90;;;;;;5036274;28;20211;-77
2024/01/08 03:24:11;;;;;;;12.00;6.93;;;-1.20;2.70;;;;;;5033895;28;20227;-77
2024/01/08 03:26:38;;;;;;;11.90;6.27;;;-1.20;99.90;;;;;;5031954;28;20237;-77
2024/01/08 03:29:05;;;;;;;9.37;5.70;;;-1.20;38.40;;;;;;5037194;28;20200;-77
2024/01/08 03:31:33;;;;;;;9.83;6.07;;;-1.20;1.00;;;;;;5038074;28;20202;-77
2024/01/08 03:33:59;;;;;;;10.17;6.00;;;-1.20;1.00;;;;;;5038451;28;20598;-77
2024/01/08 03:36:26;;;;;;;12.30;6.67;;;-1.20;1.00;;;;;;5036030;28;20681;-77
2024/01/08 03:38:53;;;;;;;10.43;5.40;;;-1.20;1.00;;;;;;5039576;28;20704;-77
2024/01/08 03:41:20;;;;;;;10.10;5.70;;;-1.10;1.00;;;;;;5033050;28;20672;-77
2024/01/08 03:43:46;;;;;;;10.60;6.37;;;-1.10;1.00;;;;;;5033017;28;20226;-78
2024/01/08 03:46:13;;;;;;;8.73;5.33;;;-1.10;1.00;;;;;;5033580;28;20682;-77
2024/01/08 03:48:41;;;;;;;10.90;6.03;;;-1.20;1.00;;;;;;5033062;28;20214;-77
2024/01/08 03:51:08;;;;;;;8.70;5.43;;;-1.10;1.00;;;;;;5031335;28;20204;-77
2024/01/08 03:53:35;;;;;;;11.40;6.20;;;-1.20;1.00;;;;;;5031481;28;20595;-77
2024/01/08 03:56:02;;;;;;;8.27;5.60;;;-1.10;1.00;;;;;;5035555;28;20208;-77
2024/01/08 03:58:28;;;;;;;10.37;5.47;;;-1.10;1.00;;;;;;5033171;28;20572;-77
2024/01/08 04:00:55;;;;;;;9.33;6.33;;;-1.10;1.00;;;;;;5036217;28;20668;-78
2024/01/08 04:03:22;;;;;;;8.33;5.17;;;-1.10;1.00;;;;;;5033802;28;20792;-77
2024/01/08 04:05:50;;;;;;;8.53;5.50;;;-1.20;1.00;;;;;;5033956;28;20325;-77
2024/01/08 04:08:17;;;;;;;9.57;6.00;;;-1.20;1.00;;;;;;5032748;28;20573;-77
2024/01/08 04:10:44;;;;;;;9.53;5.67;;;-1.20;1.00;;;;;;5031965;28;20672;-77
2024/01/08 04:13:11;;;;;;;8.77;5.47;;;-1.20;1.00;;;;;;5032583;28;20228;-77
2024/01/08 04:15:38;;;;;;;9.37;5.20;;;-1.20;1.00;;;;;;5032594;28;20215;-77
2024/01/08 04:18:05;;;;;;;7.90;5.30;;;-1.20;1.00;;;;;;5034356;28;20214;-76
2024/01/08 04:20:32;;;;;;;8.03;4.90;;;-1.20;1.00;;;;;;5033044;28;20202;-78
2024/01/08 04:23:00;;;;;;;9.60;5.17;;;-1.20;1.00;;;;;;5032089;28;20732;-77
2024/01/08 04:25:27;;;;;;;9.53;4.70;;;-1.20;99.90;;;;;;5038166;28;20223;-77
2024/01/08 04:27:54;;;;;;;9.80;5.60;;;-1.20;1.00;;;;;;5031593;28;20214;-77
2024/01/08 04:30:20;;;;;;;9.13;4.67;;;-1.20;1.00;;;;;;5033533;28;20231;-78
2024/01/08 04:32:47;;;;;;;6.97;3.73;;;-1.20;1.00;;;;;;5038933;28;20245;-78
2024/01/08 04:35:14;;;;;;;5.90;3.33;;;-1.10;29.20;;;;;;5028158;28;20381;-78
2024/01/08 04:37:41;;;;;;;8.50;4.63;;;-1.30;1.00;;;;;;5034340;28;20210;-79
2024/01/08 04:40:11;;;;;;;7.93;4.47;;;-1.40;1.00;;;;;;5039318;28;20206;-78
2024/01/08 04:42:37;;;;;;;7.00;4.07;;;-1.40;1.00;;;;;;5027925;28;20195;-77
2024/01/08 04:45:05;;;;;;;8.40;4.53;;;-1.50;1.00;;;;;;5040843;28;20672;-77
2024/01/08 04:47:31;;;;;;;10.53;3.90;;;-1.50;1.00;;;;;;5033130;28;20218;-77
2024/01/08 04:49:58;;;;;;;4.83;3.13;;;-1.50;1.00;;;;;;5034118;28;20223;-78
2024/01/08 04:52:25;;;;;;;8.63;4.43;;;-1.60;1.00;;;;;;5032885;28;20567;-78
2024/01/08 04:54:52;;;;;;;6.53;4.30;;;-1.70;1.00;;;;;;5039313;28;20222;-78
2024/01/08 04:57:20;;;;;;;6.33;3.67;;;-1.80;1.00;;;;;;5039105;28;20206;-77
2024/01/08 04:59:47;;;;;;;7.83;4.67;;;-1.80;1.00;;;;;;5037806;28;20203;-78
2024/01/08 05:02:14;;;;;;;7.80;4.40;;;-1.80;1.00;;;;;;5033481;28;21107;-77
2024/01/08 05:04:42;;;;;;;9.13;4.97;;;-1.90;1.00;;;;;;5036413;28;20223;-77
2024/01/08 05:07:12;;;;;;;7.00;4.03;;;-2.00;1.00;;;;;;5033706;28;20227;-78
2024/01/08 05:09:38;;;;;;;10.37;4.97;;;-2.00;1.00;;;;;;5034533;28;20222;-78
2024/01/08 05:12:06;;;;;;;9.60;5.20;;;-2.10;1.00;;;;;;5032166;28;20580;-77
2024/01/08 05:14:34;;;;;;;9.97;5.03;;;-2.10;1.00;;;;;;5033464;28;20712;-78
2024/01/08 05:17:01;;;;;;;8.77;5.10;;;-2.20;1.00;;;;;;5030416;28;20208;-78
2024/01/08 05:19:27;;;;;;;9.13;5.77;;;-2.20;1.00;;;;;;5032275;28;20199;-78
2024/01/08 05:21:54;;;;;;;11.30;5.20;;;-2.20;1.00;;;;;;5030566;28;20599;-78
2024/01/08 05:24:21;;;;;;;10.10;5.97;;;-2.20;1.00;;;;;;5038726;28;20219;-77
2024/01/08 05:26:48;;;;;;;9.83;5.90;;;-2.20;1.00;;;;;;5038699;28;20315;-77
2024/01/08 05:29:14;;;;;;;9.20;5.30;;;-2.30;1.00;;;;;;5046719;28;20211;-78
2024/01/08 05:31:43;;;;;;;11.10;5.53;;;-2.30;1.00;;;;;;5035900;28;20214;-77
2024/01/08 05:34:10;;;;;;;10.17;5.67;;;-2.30;1.00;;;;;;5037421;28;20234;-77
2024/01/08 05:36:40;;;;;;;9.47;4.60;;;-2.30;1.00;;;;;;5031015;28;20202;-77
2024/01/08 05:39:07;;;;;;;11.20;5.87;;;-2.30;1.00;;;;;;5042711;28;20207;-78
2024/01/08 05:41:34;;;;;;;7.87;4.93;;;-2.30;1.00;;;;;;5034146;28;20195;-78
2024/01/08 05:44:01;;;;;;;9.90;5.27;;;-2.40;1.00;;;;;;5038293;28;20234;-78
2024/01/08 05:46:29;;;;;;;10.90;5.83;;;-2.40;1.00;;;;;;5031041;28;20219;-77
2024/01/08 05:48:57;;;;;;;11.03;6.03;;;-2.40;1.00;;;;;;5038667;28;20203;-77
2024/01/08 05:51:28;;;;;;;11.70;6.13;;;-2.40;1.00;;;;;;5031148;28;20196;-78
2024/01/08 05:53:55;;;;;;;11.23;6.07;;;-2.40;1.00;;;;;;5041667;28;20596;-78
2024/01/08 05:56:21;;;;;;;12.83;6.47;;;-2.40;1.00;;;;;;5037642;28;20207;-78
2024/01/08 05:58:48;;;;;;;12.80;6.37;;;-2.50;1.00;;;;;;5034893;28;20226;-79
2024/01/08 06:01:17;;;;;;;9.67;5.23;;;-2.60;1.00;;;;;;5037393;28;20592;-77
2024/01/08 06:03:44;;;;;;;7.60;3.83;;;-2.70;99.90;;;;;;5038345;28;20223;-78
2024/01/08 06:06:14;;;;;;;8.13;4.33;;;-2.80;99.90;;;;;;5034229;28;20219;-78
2024/01/08 06:08:41;;;;;;;8.37;4.53;;;-2.80;99.90;;;;;;5030050;28;20200;-78
2024/01/08 06:11:08;;;;;;;6.70;4.03;;;-2.80;99.90;;;;;;5032028;28;20654;-78
2024/01/08 06:13:36;;;;;;;8.97;4.87;;;-2.90;30.70;;;;;;5033117;28;20222;-78
2024/01/08 06:16:04;;;;;;;6.87;4.13;;;-2.90;28.00;;;;;;5032830;28;20203;-78
2024/01/08 06:18:31;;;;;;;8.83;4.70;;;-3.00;17.70;;;;;;5032079;28;20199;-78
2024/01/08 06:20:58;;;;;;;7.60;4.37;;;-3.00;63.50;;;;;;5031446;28;20294;-78
2024/01/08 06:23:26;;;;;;;8.03;3.73;;;-3.00;1.00;;;;;;5031119;28;20649;-78
2024/01/08 06:25:54;;;;;;;9.43;4.40;;;-3.00;1.00;;;;;;5030531;28;20219;-78
2024/01/08 06:28:21;;;;;;;5.17;3.20;;;-3.00;1.00;;;;;;5030794;28;20282;-78
2024/01/08 06:30:48;;;;;;;6.43;4.00;;;-3.00;1.00;;;;;;5031370;28;20204;-78
2024/01/08 06:33:15;;;;;;;7.50;3.70;;;-3.10;1.00;;;;;;5046572;28;20233;-78
2024/01/08 06:35:43;;;;;;;5.23;2.87;;;-3.20;1.00;;;;;;5042373;28;20658;-78
2024/01/08 06:38:10;;;;;;;5.77;3.70;;;-3.20;1.00;;;;;;5036096;28;20203;-78
2024/01/08 06:40:38;;;;;;;5.63;3.50;;;-3.30;1.00;;;;;;5033811;28;20203;-77
2024/01/08 06:43:05;;;;;;;3.90;3.20;;;-4.10;1.00;;;;;;5038750;28;20230;-78
2024/01/08 06:45:31;;;;;;;7.37;3.90;;;-3.40;1.00;;;;;;5032357;28;20207;-78
2024/01/08 06:47:58;;;;;;;6.43;3.33;;;-3.40;1.00;;;;;;5042776;28;20661;-78
2024/01/08 06:50:25;;;;;;;6.70;3.63;;;-3.40;1.00;;;;;;5032803;28;20204;-78
2024/01/08 06:52:52;;;;;;;6.23;3.90;;;-3.50;1.00;;;;;;5034216;28;20303;-78
2024/01/08 06:55:19;;;;;;;9.30;4.20;;;-3.50;1.00;;;;;;5038841;28;20211;-77
2024/01/08 06:57:47;;;;;;;10.27;4.30;;;-3.50;1.00;;;;;;5036490;28;20229;-77
2024/01/08 07:00:15;;;;;;;8.27;3.83;;;-3.50;1.00;;;;;;5034255;28;20211;-77
2024/01/08 07:02:42;;;;;;;7.60;4.23;;;-3.60;1.00;;;;;;5037270;28;20283;-77
2024/01/08 07:05:09;;;;;;;6.57;3.67;;;-3.60;1.00;;;;;;5033562;28;20211;-77
2024/01/08 07:07:37;;;;;;;7.40;4.30;;;-3.60;1.00;;;;;;5029614;28;20302;-77
2024/01/08 07:10:04;;;;;;;6.80;3.77;;;-3.60;1.00;;;;;;5039487;28;20203;-78
2024/01/08 07:12:31;;;;;;;7.77;4.13;;;-3.70;1.00;;;;;;5037198;28;20200;-77
2024/01/08 07:14:59;;;;;;;8.77;4.70;;;-3.60;1.00;;;;;;5035666;28;20204;-78
2024/01/08 07:17:26;;;;;;;10.33;5.20;;;-3.70;1.00;;;;;;5028072;28;20219;-78
2024/01/08 07:19:52;;;;;;;7.70;4.57;;;-3.60;1.00;;;;;;5033934;28;20196;-78
2024/01/08 07:22:19;;;;;;;9.40;5.17;;;-3.60;1.00;;;;;;5033896;28;20238;-78
2024/01/08 07:24:46;;;;;;;9.50;4.90;;;-3.60;1.00;;;;;;5034219;28;20688;-78
2024/01/08 07:27:13;;;;;;;10.53;5.03;;;-3.60;79.30;;;;;;5033179;28;20207;-77
2024/01/08 07:29:40;;;;;;;10.90;5.53;;;-3.60;1.00;;;;;;5032594;28;20206;-77
2024/01/08 07:32:08;;;;;;;9.90;4.80;;;-3.60;99.90;;;;;;5031913;28;20204;-78
2024/01/08 07:34:35;;;;;;;8.33;4.07;;;-3.60;1.00;;;;;;5033132;28;20226;-77
2024/01/08 07:37:04;;;;;;;8.60;4.17;;;-3.60;1.00;;;;;;5046473;28;20234;-78
2024/01/08 07:39:31;;;;;;;5.50;3.00;;;-3.70;1.00;;;;;;5039764;28;20670;-76
2024/01/08 07:41:58;;;;;;;9.67;4.70;;;-3.70;1.00;;;;;;5039584;28;20203;-77
2024/01/08 07:44:25;;;;;;;6.57;4.07;;;-3.70;1.00;;;;;;5039152;28;20718;-78
2024/01/08 07:46:52;;;;;;;10.70;5.13;;;-3.80;1.00;;;;;;5039393;28;20637;-78
2024/01/08 07:49:20;;;;;;;13.87;4.97;;;-3.80;1.00;;;;;;5032291;28;20206;-77
2024/01/08 07:51:47;;;;;;;7.80;4.80;;;-3.80;1.00;;;;;;5036214;28;20203;-77
2024/01/08 07:54:14;;;;;;;8.77;4.43;;;-3.80;1.00;;;;;;5042815;28;20607;-76
2024/01/08 07:56:40;;;;;;;9.73;3.83;;;-3.90;1.00;;;;;;5045603;28;20394;-77
2024/01/08 07:59:07;;;;;;;8.63;3.73;;;-3.90;1.00;;;;;;5038446;28;20237;-77
2024/01/08 08:01:34;;;;;;;10.97;4.57;;;-3.90;1.00;;;;;;5038408;28;20199;-78
2024/01/08 08:04:01;;;;;;;6.93;3.90;;;-4.00;1.00;;;;;;5037827;28;20598;-78
2024/01/08 08:06:30;;;;;;;8.67;4.50;;;-4.00;1.00;;;;;;5035147;28;20677;-77
2024/01/08 08:08:57;;;;;;;8.63;4.50;;;-4.00;1.00;;;;;;5035349;28;20234;-78
2024/01/08 08:11:24;;;;;;;7.30;4.20;;;-4.00;1.00;;;;;;5035758;28;20196;-77
2024/01/08 08:13:51;;;;;;;8.63;4.33;;;-4.00;1.00;;;;;;5034334;28;20230;-77
2024/01/08 08:16:18;;;;;;;7.03;3.70;;;-4.00;1.00;;;;;;5031406;28;20246;-78
2024/01/08 08:18:45;;;;;;;6.40;3.67;;;-4.10;1.00;;;;;;5031577;28;20200;-78
2024/01/08 08:21:12;;;;;;;6.20;3.33;;;-4.10;1.00;;;;;;5032450;28;20567;-77
2024/01/08 08:23:40;;;;;;;9.27;4.43;;;-4.00;1.00;;;;;;5032307;28;20227;-77
2024/01/08 08:26:07;;;;;;;6.60;3.80;;;-3.90;1.00;;;;;;5033033;28;20578;-77
2024/01/08 08:28:34;;;;;;;6.10;3.27;;;-4.00;1.00;;;;;;5035260;28;20230;-78
2024/01/08 08:31:01;;;;;;;6.23;2.97;;;-4.00;1.00;;;;;;5033060;28;20199;-78
2024/01/08 08:33:27;;;;;;;10.90;4.23;;;-4.00;1.00;;;;;;5033478;28;20222;-77
2024/01/08 08:35:54;;;;;;;4.10;3.23;;;-4.00;1.00;;;;;;5032372;28;20547;-77
2024/01/08 08:38:22;;;;;;;8.00;3.80;;;-3.90;1.00;;;;;;5037291;28;20232;-77
2024/01/08 08:40:50;;;;;;;6.43;3.23;;;-3.80;1.00;;;;;;5032690;28;20582;-77
2024/01/08 08:43:17;;;;;;;6.33;3.77;;;-3.80;1.00;;;;;;5036739;28;20591;-77
2024/01/08 08:45:44;;;;;;;4.53;2.70;;;-3.50;1.00;;;;;;5038092;28;20206;-77
2024/01/08 08:48:10;;;;;;;7.07;3.83;;;-3.40;1.00;;;;;;5041243;28;20205;-78
2024/01/08 08:50:37;;;;;;;8.87;4.97;;;-3.60;1.00;;;;;;5041411;28;20203;-77
2024/01/08 08:53:04;;;;;;;8.37;4.30;;;-3.80;1.00;;;;;;5041043;28;20230;-78
2024/01/08 08:55:31;;;;;;;9.73;4.50;;;-3.60;1.00;;;;;;5033680;28;20203;-77
2024/01/08 08:57:59;;;;;;;8.13;4.50;;;-3.80;1.00;;;;;;5037901;28;20248;-78
2024/01/08 09:00:26;;;;;;;9.50;4.50;;;-3.60;1.00;;;;;;5034083;28;20215;-78
2024/01/08 09:02:54;;;;;;;8.30;4.20;;;-3.70;1.00;;;;;;5034842;28;20218;-77
2024/01/08 09:05:21;;;;;;;6.13;2.90;;;-3.80;1.00;;;;;;5039655;28;20218;-77
2024/01/08 09:07:48;;;;;;;8.27;3.33;;;-3.80;1.00;;;;;;5037445;28;20655;-77
2024/01/08 09:10:16;;;;;;;8.03;3.83;;;-3.80;1.00;;;;;;5034944;28;20204;-78
2024/01/08 09:12:42;;;;;;;6.77;3.33;;;-3.60;1.00;;;;;;5032168;28;20204;-77
2024/01/08 09:15:11;;;;;;;4.20;2.40;;;-3.70;1.00;;;;;;5034645;28;20651;-77
2024/01/08 09:17:38;;;;;;;3.90;2.67;;;-3.80;1.00;;;;;;5033334;28;20235;-77
2024/01/08 09:20:08;;;;;;;8.23;4.00;;;-3.90;1.00;;;;;;5035744;28;20199;-77
2024/01/08 09:22:35;;;;;;;4.93;2.50;;;-3.80;1.00;;;;;;5036006;28;20203;-77
2024/01/08 09:25:04;;;;;;;5.37;2.80;;;-3.80;1.00;;;;;;5034046;28;20210;-78
2024/01/08 09:27:31;;;;;;;6.03;3.17;;;-3.60;1.00;;;;;;5032597;28;20219;-78
2024/01/08 09:29:58;;;;;;;8.70;4.20;;;-3.50;1.00;;;;;;5032640;28;20218;-77
2024/01/08 09:32:26;;;;;;;6.60;3.60;;;-3.50;1.00;;;;;;5031919;28;20199;-77
2024/01/08 09:34:53;;;;;;;10.67;4.57;;;-3.40;1.00;;;;;;5033040;28;20207;-78
2024/01/08 09:37:20;;;;;;;4.30;2.63;;;-3.50;1.00;;;;;;5033117;28;20737;-78
2024/01/08 09:39:47;;;;;;;8.10;4.13;;;-3.50;1.00;;;;;;5031080;28;20286;-77
2024/01/08 09:42:15;;;;;;;5.43;3.03;;;-3.50;1.00;;;;;;5030607;28;20298;-77
2024/01/08 09:44:47;;;;;;;6.47;3.60;;;-3.60;1.00;;;;;;5030658;28;20230;-77
2024/01/08 09:47:16;;;;;;;6.57;3.17;;;-3.40;1.00;;;;;;5030006;28;20196;-78
2024/01/08 09:49:46;;;;;;;7.97;4.20;;;-3.60;1.00;;;;;;5036149;28;20214;-77
2024/01/08 09:52:14;;;;;;;4.70;3.07;;;-3.50;1.00;;;;;;5042634;28;20213;-77
2024/01/08 09:54:42;;;;;;;7.40;3.73;;;-3.50;1.00;;;;;;5038789;28;20227;-77
2024/01/08 09:57:09;;;;;;;7.30;3.33;;;-3.60;1.00;;;;;;5038169;28;20219;-77
2024/01/08 09:59:36;;;;;;;6.67;3.70;;;-3.60;1.00;;;;;;5029874;28;20883;-78
2024/01/08 10:02:04;;;;;;;8.03;4.17;;;-3.60;1.00;;;;;;5031174;28;20203;-77
2024/01/08 10:04:31;;;;;;;5.67;2.90;;;-3.50;1.00;;;;;;5032700;28;20220;-78
2024/01/08 10:07:06;;;;;;;9.40;4.20;;;-3.40;1.00;;;;;;5037143;28;20234;-78
2024/01/08 10:09:33;;;;;;;7.47;4.03;;;-3.40;1.00;;;;;;5033138;28;20635;-78
2024/01/08 10:12:00;;;;;;;5.23;3.23;;;-3.50;1.00;;;;;;5036696;28;20213;-78
2024/01/08 10:14:28;;;;;;;6.27;3.20;;;-3.50;99.90;;;;;;5031771;28;20225;-77
2024/01/08 10:16:55;;;;;;;6.97;4.00;;;-3.50;99.90;;;;;;5030082;28;20207;-77
2024/01/08 10:19:23;;;;;;;6.47;4.00;;;-3.40;1.00;;;;;;5029191;28;20551;-77
2024/01/08 10:22:09;;;;;;;9.53;3.97;;;-3.40;99.90;;;;;;5030379;28;20199;-77
2024/01/08 10:24:38;;;;;;;8.43;4.50;;;-3.30;99.90;;;;;;5029641;28;20229;-78
2024/01/08 10:27:05;;;;;;;9.63;4.20;;;-3.10;1.00;;;;;;5032909;28;20211;-77
2024/01/08 10:29:32;;;;;;;8.87;3.93;;;-3.20;99.90;;;;;;5033131;28;20195;-77
2024/01/08 10:31:59;;;;;;;6.33;3.77;;;-3.30;99.90;;;;;;5029816;28;20212;-77
2024/01/08 10:34:27;;;;;;;8.10;4.13;;;-3.20;99.90;;;;;;5032867;28;20219;-77
2024/01/08 10:36:54;;;;;;;6.63;2.90;;;-3.10;99.90;;;;;;5031936;28;20211;-78
2024/01/08 10:39:22;;;;;;;5.80;3.00;;;-3.20;99.90;;;;;;5030480;28;20214;-78
2024/01/08 10:41:50;;;;;;;7.80;4.00;;;-3.40;99.90;;;;;;5032453;28;20334;-77
2024/01/08 10:44:17;;;;;;;7.47;4.60;;;-3.30;99.90;;;;;;5032778;28;20653;-78
2024/01/08 10:46:54;;;;;;;7.17;3.43;;;-3.20;99.90;;;;;;5035724;28;20659;-77
2024/01/08 10:49:22;;;;;;;5.97;3.10;;;-3.20;99.90;;;;;;5032572;28;20203;-78
2024/01/08 10:51:50;;;;;;;7.80;4.53;;;-3.20;99.90;;;;;;5029648;28;20207;-78
2024/01/08 10:54:19;;;;;;;5.60;3.00;;;-3.00;99.90;;;;;;5033955;28;20241;-77
2024/01/08 10:56:57;;;;;;;5.07;2.87;;;-3.10;99.90;;;;;;5041754;28;20211;-78
2024/01/08 10:59:27;;;;;;;5.20;3.00;;;-2.70;99.90;;;;;;5034493;28;20953;-78
2024/01/08 11:01:54;;;;;;;6.27;3.43;;;-3.10;99.90;;;;;;5037290;28;20210;-77
2024/01/08 11:04:21;;;;;;;5.97;3.43;;;-3.10;99.90;;;;;;5040840;28;20224;-78
2024/01/08 11:06:50;;;;;;;5.60;3.60;;;-3.10;99.90;;;;;;5039997;28;20231;-79
2024/01/08 11:09:26;;;;;;;8.40;4.77;;;-3.00;99.90;;;;;;5039296;28;20196;-77
2024/01/08 11:11:55;;;;;;;8.20;3.43;;;-3.00;99.90;;;;;;5040555;28;20199;-77
2024/01/08 11:14:24;;;;;;;8.53;3.30;;;-3.10;99.90;;;;;;5035455;28;20216;-77
2024/01/08 11:16:52;;;;;;;6.47;3.20;;;-3.10;99.90;;;;;;5035245;28;20214;-78
2024/01/08 11:19:26;;;;;;;6.30;3.03;;;-3.20;99.90;;;;;;5036816;28;20219;-78
2024/01/08 11:21:56;;;;;;;6.67;3.40;;;-3.20;99.90;;;;;;5035705;28;20635;-77
2024/01/08 11:24:24;;;;;;;6.20;3.20;;;-3.10;99.90;;;;;;5036341;28;20674;-78
2024/01/08 11:26:51;;;;;;;4.13;2.40;;;-3.10;99.90;;;;;;5035113;28;20655;-78
2024/01/08 11:29:21;;;;;;;6.07;2.93;;;-3.10;99.90;;;;;;5041936;28;20226;-77
2024/01/08 11:32:24;;;;;;;7.50;3.20;;;-3.10;99.90;;;;;;5041545;28;20286;-77
2024/01/08 11:35:00;;;;;;;11.23;4.83;;;-3.20;99.90;;;;;;5032517;28;20223;-78
2024/01/08 11:37:31;;;;;;;6.60;3.73;;;-3.00;99.90;;;;;;5042364;28;20230;-77
2024/01/08 11:39:58;;;;;;;11.33;4.60;;;-3.00;99.90;;;;;;5039115;28;20223;-78
2024/01/08 11:42:25;;;;;;;8.87;4.00;;;-3.00;99.90;;;;;;5040427;28;20246;-78
2024/01/08 11:44:53;;;;;;;8.83;4.37;;;-3.00;99.90;;;;;;5032311;28;20326;-78
2024/01/08 11:47:20;;;;;;;8.50;4.33;;;-2.90;99.90;;;;;;5035525;28;20212;-77
2024/01/08 11:49:50;;;;;;;5.33;2.93;;;-2.80;99.90;;;;;;5037397;28;20646;-77
2024/01/08 11:52:17;;;;;;;5.23;2.20;;;-2.90;99.90;;;;;;5035548;28;20208;-77
2024/01/08 11:54:48;;;;;;;7.67;3.67;;;-3.10;99.90;;;;;;5035681;28;20223;-77
2024/01/08 11:57:16;;;;;;;7.27;4.50;;;-3.00;99.90;;;;;;5033786;28;20215;-77
2024/01/08 11:59:42;;;;;;;7.67;4.27;;;-2.90;99.90;;;;;;5035802;28;20230;-78
2024/01/08 12:02:15;;;;;;;6.93;3.53;;;-3.00;99.90;;;;;;5039436;28;20582;-77
2024/01/08 12:04:42;;;;;;;11.27;3.93;;;-2.90;99.90;;;;;;5040810;28;20224;-77
2024/01/08 12:07:13;;;;;;;8.57;4.27;;;-2.90;99.90;;;;;;5038811;28;20267;-77
2024/01/08 12:09:42;;;;;;;6.63;3.60;;;-2.60;99.90;;;;;;5038283;28;20654;-77
2024/01/08 12:12:10;;;;;;;5.43;3.47;;;-2.50;99.90;;;;;;5039655;28;20202;-77
2024/01/08 12:14:39;;;;;;;7.30;3.60;;;-2.70;99.90;;;;;;5037735;28;20220;-78
2024/01/08 12:17:07;;;;;;;8.80;4.17;;;-2.40;99.90;;;;;;5035206;28;20632;-78
2024/01/08 12:19:38;;;;;;;9.03;3.80;;;-2.60;99.90;;;;;;5035600;28;20223;-77
2024/01/08 12:22:05;;;;;;;7.83;4.10;;;-2.70;99.90;;;;;;5034188;28;20210;-77
2024/01/08 12:24:33;;;;;;;8.43;4.20;;;-2.70;99.90;;;;;;5039349;28;20728;-77
2024/01/08 12:27:03;;;;;;;7.07;3.17;;;-2.70;99.90;;;;;;5033470;28;20203;-77
2024/01/08 12:29:30;;;;;;;9.03;3.90;;;-2.70;99.90;;;;;;5042428;28;20669;-76
2024/01/08 12:31:59;;;;;;;6.87;3.97;;;-2.70;99.90;;;;;;5037465;28;20669;-77
2024/01/08 12:34:30;;;;;;;7.57;3.97;;;-2.60;99.90;;;;;;5040451;28;20309;-77
2024/01/08 12:37:00;;;;;;;6.70;3.20;;;-2.60;99.90;;;;;;5036621;28;20207;-77
2024/01/08 12:39:29;;;;;;;8.33;3.50;;;-2.70;99.90;;;;;;5041833;28;20314;-78
2024/01/08 12:41:58;;;;;;;8.23;3.63;;;-2.60;99.90;;;;;;5034208;28;20208;-78
2024/01/08 12:44:26;;;;;;;11.80;4.30;;;-2.40;99.90;;;;;;5037590;28;20227;-78
2024/01/08 12:46:54;;;;;;;9.00;4.50;;;-2.50;99.90;;;;;;5038427;28;20203;-77
2024/01/08 12:49:21;;;;;;;7.77;3.40;;;-2.50;99.90;;;;;;5033451;28;20210;-78
2024/01/08 12:51:48;;;;;;;6.77;3.57;;;-2.30;99.90;;;;;;5035935;28;20638;-77